Time;durP1;ratioP1;P1;durP2;ratioP2;P2;SDS_P1;SDS_P2;PMS_P1;PMS_P2;Temp;Humidity;BMP_temperature;BMP_pressure;BME280_temperature;BME280_humidity;BME280_pressure;Samples;Min_cycle;Max_cycle;Signal;HPM_P1;HPM_P2
2024/01/20 00:00:54;;;;;;;25.55;10.60;;;;;;;-2.10;100.00;99948.84;5049050;28;20478;-62
2024/01/20 00:03:20;;;;;;;22.88;10.90;;;;;;;-2.14;100.00;99951.78;5051021;28;20072;-62
2024/01/20 00:05:45;;;;;;;25.77;10.85;;;;;;;-2.10;100.00;99956.78;5050074;28;20570;-62
2024/01/20 00:08:11;;;;;;;22.85;9.73;;;;;;;-2.11;100.00;99954.25;5047234;28;20032;-62
2024/01/20 00:10:37;;;;;;;17.88;8.65;;;;;;;-2.13;100.00;99959.63;5048501;28;20029;-62
2024/01/20 00:13:02;;;;;;;20.27;9.30;;;;;;;-2.14;100.00;99970.34;5049146;28;20033;-62
2024/01/20 00:15:27;;;;;;;23.10;9.35;;;;;;;-2.17;100.00;99968.75;5049697;28;20020;-62
2024/01/20 00:17:53;;;;;;;23.55;9.63;;;;;;;-2.22;100.00;99961.06;5048132;28;20099;-62
2024/01/20 00:20:39;;;;;;;23.45;9.27;;;;;;;-2.15;100.00;99974.78;5054673;28;20029;-62
2024/01/20 00:23:05;;;;;;;21.33;9.07;;;;;;;-2.25;100.00;99955.09;5055132;28;20410;-62
2024/01/20 00:25:32;;;;;;;21.60;9.57;;;;;;;-2.29;100.00;99951.78;5049995;28;20155;-62
2024/01/20 00:27:57;;;;;;;23.73;10.00;;;;;;;-2.29;100.00;99953.56;5051722;28;20029;-62
2024/01/20 00:30:22;;;;;;;23.15;10.30;;;;;;;-2.25;100.00;99952.47;5050282;28;20102;-62
2024/01/20 00:32:48;;;;;;;20.33;8.88;;;;;;;-2.30;100.00;99963.34;5047847;28;20029;-62
2024/01/20 00:35:13;;;;;;;23.23;9.25;;;;;;;-2.35;100.00;99949.50;5050674;28;20033;-61
2024/01/20 00:37:39;;;;;;;24.83;9.70;;;;;;;-2.40;100.00;99961.34;5054792;28;20086;-61
2024/01/20 00:40:05;;;;;;;20.98;9.43;;;;;;;-2.48;100.00;99960.00;5048231;28;20063;-61
2024/01/20 00:42:31;;;;;;;27.52;9.23;;;;;;;-2.53;100.00;99959.41;5057126;28;20502;-61
2024/01/20 00:44:56;;;;;;;22.70;9.52;;;;;;;-2.51;100.00;99960.19;5046486;28;20021;-61
2024/01/20 00:47:22;;;;;;;23.40;8.77;;;;;;;-2.48;100.00;99967.94;5048863;28;20041;-62
2024/01/20 00:49:47;;;;;;;24.92;9.85;;;;;;;-2.54;100.00;99970.09;5054494;28;20482;-62
2024/01/20 00:52:15;;;;;;;24.55;8.98;;;;;;;-2.53;100.00;99977.97;5053533;28;20021;-62
2024/01/20 00:54:40;;;;;;;23.92;8.93;;;;;;;-2.49;100.00;99984.78;5045692;28;20084;-61
2024/01/20 00:57:06;;;;;;;25.85;9.10;;;;;;;-2.55;100.00;99989.59;5048917;28;20036;-62
2024/01/20 00:59:31;;;;;;;22.05;8.15;;;;;;;-2.56;100.00;99995.84;5050641;28;20025;-62
2024/01/20 01:01:56;;;;;;;22.63;10.00;;;;;;;-2.60;100.00;99981.91;5050209;28;20435;-61
2024/01/20 01:04:22;;;;;;;21.55;9.27;;;;;;;-2.48;100.00;99986.50;5050666;28;20021;-62
2024/01/20 01:06:48;;;;;;;21.45;9.15;;;;;;;-2.60;100.00;99976.63;5046704;28;20447;-62
2024/01/20 01:09:14;;;;;;;20.27;9.00;;;;;;;-2.54;100.00;99967.44;5044557;28;20377;-62
2024/01/20 01:11:41;;;;;;;16.50;8.23;;;;;;;-2.57;100.00;99987.03;5050413;28;20033;-62
2024/01/20 01:14:06;;;;;;;20.80;9.07;;;;;;;-2.69;100.00;99966.56;5048257;28;20220;-62
2024/01/20 01:16:32;;;;;;;24.25;10.13;;;;;;;-2.75;100.00;99990.75;5049075;28;20516;-62
2024/01/20 01:18:57;;;;;;;17.80;8.50;;;;;;;-2.70;100.00;99986.03;5047373;28;20100;-62
2024/01/20 01:21:22;;;;;;;18.50;8.30;;;;;;;-2.75;100.00;99978.38;5051456;28;20164;-62
2024/01/20 01:23:48;;;;;;;15.75;7.93;;;;;;;-2.68;100.00;99989.47;5055736;28;20045;-61
2024/01/20 01:26:14;;;;;;;20.23;8.40;;;;;;;-2.72;100.00;99987.94;5053054;28;20055;-62
2024/01/20 01:28:40;;;;;;;17.05;8.07;;;;;;;-2.67;100.00;99985.88;5059046;28;20532;-61
2024/01/20 01:31:06;;;;;;;19.85;8.07;;;;;;;-2.76;100.00;99994.34;5050073;28;20030;-62
2024/01/20 01:33:32;;;;;;;21.42;8.80;;;;;;;-2.74;100.00;99989.84;5057694;28;20111;-61
2024/01/20 01:35:58;;;;;;;18.88;8.50;;;;;;;-2.75;100.00;100001.34;5049181;28;20096;-61
2024/01/20 01:38:24;;;;;;;19.02;8.32;;;;;;;-2.73;100.00;100004.75;5056815;28;20036;-62
2024/01/20 01:40:49;;;;;;;25.00;10.00;;;;;;;-2.78;100.00;100004.19;5045136;28;20030;-62
2024/01/20 01:43:14;;;;;;;21.70;8.15;;;;;;;-2.89;100.00;100016.25;5054743;28;20029;-62
2024/01/20 01:45:40;;;;;;;25.63;8.77;;;;;;;-2.78;100.00;100014.78;5049380;28;20380;-61
2024/01/20 01:48:05;;;;;;;19.60;8.13;;;;;;;-2.82;100.00;100013.25;5053132;28;20104;-62
2024/01/20 01:50:32;;;;;;;21.23;9.43;;;;;;;-2.91;100.00;99998.75;5049256;28;20113;-61
2024/01/20 01:52:58;;;;;;;17.20;8.23;;;;;;;-2.90;100.00;100000.47;5051070;28;20024;-61
2024/01/20 01:55:24;;;;;;;21.02;8.23;;;;;;;-2.94;100.00;100006.84;5051297;28;20063;-61
2024/01/20 01:57:55;;;;;;;20.52;7.90;;;;;;;-3.06;100.00;100005.78;5048878;28;20029;-61
2024/01/20 02:00:20;;;;;;;19.23;7.95;;;;;;;-3.11;100.00;100010.47;5050816;28;20022;-61
2024/01/20 02:02:46;;;;;;;18.65;8.02;;;;;;;-3.13;100.00;100010.56;5057517;28;20017;-61
2024/01/20 02:05:11;;;;;;;22.30;7.95;;;;;;;-3.20;100.00;100006.53;5052762;28;20021;-59
2024/01/20 02:07:39;;;;;;;20.02;8.05;;;;;;;-3.19;100.00;100016.22;5054254;28;20029;-61
2024/01/20 02:10:07;;;;;;;18.30;7.18;;;;;;;-3.16;100.00;100008.09;5048289;28;20017;-61
2024/01/20 02:12:34;;;;;;;21.85;8.50;;;;;;;-3.10;100.00;100015.69;5053363;28;20036;-62
2024/01/20 02:14:59;;;;;;;22.13;8.32;;;;;;;-3.17;100.00;100018.75;5048442;28;20023;-61
2024/01/20 02:17:25;;;;;;;17.88;7.55;;;;;;;-3.15;100.00;100023.03;5055015;28;20053;-61
2024/01/20 02:19:50;;;;;;;18.30;7.63;;;;;;;-3.07;100.00;100017.28;5046518;28;20507;-62
2024/01/20 02:22:16;;;;;;;23.05;8.50;;;;;;;-3.18;100.00;100017.06;5051823;28;20029;-62
2024/01/20 02:24:51;;;;;;;17.73;8.15;;;;;;;-3.15;100.00;100022.16;5057764;28;20040;-62
2024/01/20 02:27:18;;;;;;;19.27;8.90;;;;;;;-3.23;100.00;100016.47;5050023;28;20029;-62
2024/01/20 02:29:55;;;;;;;19.30;9.30;;;;;;;-3.28;100.00;100013.22;5062503;28;20028;-62
2024/01/20 02:32:21;;;;;;;19.63;8.60;;;;;;;-3.32;100.00;100021.34;5060147;28;20025;-64
2024/01/20 02:34:47;;;;;;;23.52;9.32;;;;;;;-3.28;100.00;100027.28;5060111;28;20100;-61
2024/01/20 02:37:13;;;;;;;22.73;9.55;;;;;;;-3.22;100.00;100023.44;5056970;28;20034;-61
2024/01/20 02:39:38;;;;;;;21.27;9.48;;;;;;;-3.28;100.00;100024.66;5055738;28;20029;-61
2024/01/20 02:42:08;;;;;;;23.23;9.15;;;;;;;-3.33;100.00;100034.63;5058002;28;20044;-62
2024/01/20 02:44:50;;;;;;;29.10;9.02;;;;;;;-3.32;100.00;100031.06;5053414;28;20361;-61
2024/01/20 02:47:17;;;;;;;27.20;9.38;;;;;;;-3.26;100.00;100025.41;5051096;28;20060;-62
2024/01/20 02:49:42;;;;;;;25.38;9.93;;;;;;;-3.16;100.00;100025.78;5052755;28;20025;-62
2024/01/20 02:52:08;;;;;;;25.02;9.55;;;;;;;-3.11;100.00;100016.63;5050932;28;20530;-61
2024/01/20 02:54:33;;;;;;;20.77;8.57;;;;;;;-2.96;100.00;100041.38;5053341;28;20025;-61
2024/01/20 02:57:00;;;;;;;24.83;9.75;;;;;;;-2.99;100.00;100030.94;5044842;28;20040;-62
2024/01/20 02:59:25;;;;;;;23.35;9.93;;;;;;;-3.03;100.00;100039.19;5053591;28;20527;-61
2024/01/20 03:01:50;;;;;;;23.00;9.30;;;;;;;-3.02;100.00;100044.38;5041356;28;20116;-61
2024/01/20 03:04:16;;;;;;;23.05;9.95;;;;;;;-3.03;100.00;100042.66;5051936;28;20043;-61
2024/01/20 03:06:41;;;;;;;26.42;9.90;;;;;;;-2.99;100.00;100038.88;5049815;28;20078;-62
2024/01/20 03:09:07;;;;;;;21.50;10.13;;;;;;;-3.08;100.00;100044.72;5063571;28;20028;-61
2024/01/20 03:11:35;;;;;;;22.33;9.48;;;;;;;-3.06;100.00;100042.84;5052775;28;20048;-61
2024/01/20 03:14:00;;;;;;;22.70;9.57;;;;;;;-3.00;100.00;100047.78;5050999;28;20035;-61
2024/01/20 03:16:25;;;;;;;30.35;9.77;;;;;;;-3.17;100.00;100046.09;5052131;28;20025;-62
2024/01/20 03:18:51;;;;;;;30.80;9.75;;;;;;;-3.19;100.00;100063.00;5054331;28;20476;-61
2024/01/20 03:21:16;;;;;;;26.70;10.00;;;;;;;-3.31;100.00;100054.78;5052060;28;20052;-62
2024/01/20 03:23:42;;;;;;;24.95;9.23;;;;;;;-3.27;100.00;100066.06;5056802;28;20046;-61
2024/01/20 03:26:09;;;;;;;23.73;9.15;;;;;;;-3.22;100.00;100063.16;5056826;28;20472;-61
2024/01/20 03:28:34;;;;;;;24.63;9.75;;;;;;;-3.19;100.00;100060.34;5056900;28;20071;-61
2024/01/20 03:31:00;;;;;;;23.20;9.80;;;;;;;-3.18;100.00;100054.09;5048304;28;20413;-61
2024/01/20 03:33:26;;;;;;;23.58;10.70;;;;;;;-3.17;100.00;100050.50;5055900;28;20027;-61
2024/01/20 03:35:52;;;;;;;21.98;9.45;;;;;;;-3.17;100.00;100051.41;5053654;28;20534;-62
2024/01/20 03:38:18;;;;;;;21.30;9.13;;;;;;;-3.09;100.00;100054.47;5051903;28;20028;-62
2024/01/20 03:40:44;;;;;;;31.95;11.55;;;;;;;-3.14;100.00;100053.00;5060250;28;20388;-61
2024/01/20 03:43:10;;;;;;;21.50;10.05;;;;;;;-3.14;100.00;100050.38;5057584;28;20100;-61
2024/01/20 03:45:39;;;;;;;29.88;10.73;;;;;;;-3.04;100.00;100051.53;5051820;28;20021;-61
2024/01/20 03:48:04;;;;;;;21.52;8.73;;;;;;;-3.02;100.00;100047.00;5050979;28;20030;-62
2024/01/20 03:50:30;;;;;;;23.13;10.10;;;;;;;-2.97;100.00;100044.97;5055001;28;20041;-61
2024/01/20 03:52:55;;;;;;;21.92;10.40;;;;;;;-3.02;100.00;100051.47;5052986;28;20032;-61
2024/01/20 03:55:29;;;;;;;23.65;10.30;;;;;;;-2.98;100.00;100053.00;5053968;28;20079;-61
2024/01/20 03:58:04;;;;;;;26.40;10.38;;;;;;;-3.03;100.00;100055.06;5049164;28;20121;-61
2024/01/20 04:00:29;;;;;;;29.27;11.00;;;;;;;-3.00;100.00;100055.72;5052911;28;20032;-61
2024/01/20 04:02:55;;;;;;;24.27;10.05;;;;;;;-3.01;100.00;100061.97;5052535;28;20035;-61
2024/01/20 04:05:21;;;;;;;21.30;10.35;;;;;;;-3.04;100.00;100064.75;5053970;28;20399;-61
2024/01/20 04:07:46;;;;;;;26.75;11.20;;;;;;;-3.02;100.00;100059.41;5047539;28;20476;-61
2024/01/20 04:10:12;;;;;;;26.17;12.25;;;;;;;-2.93;100.00;100070.34;5046722;28;20507;-62
2024/01/20 04:12:40;;;;;;;23.77;10.10;;;;;;;-2.91;100.00;100068.47;5054756;28;20024;-61
2024/01/20 04:15:06;;;;;;;20.33;8.25;;;;;;;-2.93;100.00;100072.97;5048001;28;20041;-61
2024/01/20 04:17:31;;;;;;;27.25;11.30;;;;;;;-2.92;100.00;100063.25;5052822;28;20032;-61
2024/01/20 04:19:57;;;;;;;26.48;13.10;;;;;;;-2.93;100.00;100072.97;5042113;28;20051;-61
2024/01/20 04:22:30;;;;;;;33.67;12.38;;;;;;;-2.95;100.00;100074.00;5053457;28;20033;-61
2024/01/20 04:24:56;;;;;;;26.83;11.80;;;;;;;-2.93;100.00;100078.28;5054690;28;20044;-61
2024/01/20 04:27:21;;;;;;;30.10;10.75;;;;;;;-2.89;100.00;100084.25;5045009;28;20484;-61
2024/01/20 04:29:47;;;;;;;28.02;11.32;;;;;;;-2.85;100.00;100077.84;5052624;28;20040;-61
2024/01/20 04:32:12;;;;;;;36.78;12.30;;;;;;;-2.82;100.00;100085.63;5050909;28;20025;-62
2024/01/20 04:34:37;;;;;;;34.20;11.77;;;;;;;-2.85;100.00;100079.66;5052258;28;20468;-61
2024/01/20 04:37:03;;;;;;;30.33;11.90;;;;;;;-2.85;100.00;100084.94;5048478;28;20029;-61
2024/01/20 04:39:28;;;;;;;25.48;10.95;;;;;;;-2.88;100.00;100084.16;5047799;28;20021;-61
2024/01/20 04:41:54;;;;;;;34.70;12.55;;;;;;;-2.91;100.00;100081.69;5048091;28;20561;-61
2024/01/20 04:44:19;;;;;;;28.67;11.55;;;;;;;-2.88;100.00;100089.47;5055883;28;20025;-61
2024/01/20 04:46:45;;;;;;;33.80;13.45;;;;;;;-2.87;100.00;100090.31;5045273;28;20100;-61
2024/01/20 04:49:10;;;;;;;30.75;12.20;;;;;;;-2.87;100.00;100092.97;5050783;28;20029;-61
2024/01/20 04:51:36;;;;;;;26.10;11.73;;;;;;;-2.92;100.00;100093.22;5051339;28;20038;-61
2024/01/20 04:54:01;;;;;;;33.60;13.35;;;;;;;-2.94;100.00;100089.78;5055161;28;20046;-61
2024/01/20 04:56:27;;;;;;;33.40;12.60;;;;;;;-2.94;100.00;100100.38;5053173;28;20086;-62
2024/01/20 04:58:54;;;;;;;35.47;12.80;;;;;;;-2.93;100.00;100090.66;5107455;22;20045;-54
2024/01/20 05:01:20;;;;;;;31.23;12.45;;;;;;;-2.95;100.00;100093.38;5048706;28;20104;-56
2024/01/20 05:03:46;;;;;;;36.15;12.00;;;;;;;-3.08;100.00;100090.56;5053655;28;20108;-53
2024/01/20 05:06:12;;;;;;;28.70;10.98;;;;;;;-3.09;100.00;100095.97;5036271;28;20021;-53
2024/01/20 05:08:37;;;;;;;31.88;11.68;;;;;;;-3.14;100.00;100095.38;5028360;28;20037;-53
2024/01/20 05:11:03;;;;;;;31.27;12.70;;;;;;;-3.09;100.00;100093.31;5021953;28;20033;-53
2024/01/20 05:13:30;;;;;;;28.60;12.48;;;;;;;-3.15;100.00;100091.00;5027957;28;20489;-53
2024/01/20 05:15:55;;;;;;;32.38;13.68;;;;;;;-3.10;100.00;100094.25;5046244;28;20389;-53
2024/01/20 05:18:21;;;;;;;29.88;13.68;;;;;;;-3.04;100.00;100093.03;5020975;28;20030;-53
2024/01/20 05:20:46;;;;;;;31.30;13.05;;;;;;;-3.05;100.00;100097.50;5028969;28;20037;-53
2024/01/20 05:23:12;;;;;;;31.70;14.13;;;;;;;-3.01;100.00;100100.81;5033170;28;20052;-53
2024/01/20 05:25:38;;;;;;;29.80;12.73;;;;;;;-2.97;100.00;100095.25;5027296;28;20032;-53
2024/01/20 05:28:03;;;;;;;32.35;13.32;;;;;;;-3.13;100.00;100102.34;5028432;28;20033;-54
2024/01/20 05:30:29;;;;;;;27.45;11.73;;;;;;;-3.16;100.00;100095.44;5025022;28;20030;-53
2024/01/20 05:32:54;;;;;;;31.33;12.65;;;;;;;-3.17;100.00;100092.88;5022531;28;20067;-53
2024/01/20 05:35:20;;;;;;;31.77;12.85;;;;;;;-3.29;100.00;100101.50;5030392;28;20029;-53
2024/01/20 05:37:45;;;;;;;26.05;12.18;;;;;;;-3.38;100.00;100113.41;5024626;28;20478;-53
2024/01/20 05:40:11;;;;;;;28.35;11.82;;;;;;;-3.28;100.00;100117.28;5023865;28;20029;-53
2024/01/20 05:42:37;;;;;;;32.45;13.48;;;;;;;-3.20;100.00;100116.84;5026957;28;20103;-54
2024/01/20 05:45:03;;;;;;;36.17;13.95;;;;;;;-3.14;100.00;100121.84;5028629;28;20028;-54
2024/01/20 05:47:28;;;;;;;30.40;13.90;;;;;;;-3.15;100.00;100128.06;5024474;28;20037;-54
2024/01/20 05:49:54;;;;;;;35.83;14.57;;;;;;;-3.16;100.00;100134.28;5021426;28;20413;-53
2024/01/20 05:52:19;;;;;;;32.10;13.20;;;;;;;-3.16;100.00;100137.78;5028347;28;20083;-54
2024/01/20 05:54:45;;;;;;;30.35;12.65;;;;;;;-3.13;100.00;100132.31;5028980;28;20057;-54
2024/01/20 05:57:10;;;;;;;27.27;13.00;;;;;;;-3.18;100.00;100144.09;5037465;28;20508;-53
2024/01/20 05:59:36;;;;;;;38.67;13.27;;;;;;;-3.21;100.00;100145.13;5023579;28;20053;-54
2024/01/20 06:02:01;;;;;;;27.83;12.70;;;;;;;-3.25;100.00;100148.00;5030760;28;20033;-54
2024/01/20 06:04:26;;;;;;;30.75;13.15;;;;;;;-3.36;100.00;100132.72;5027061;28;20032;-54
2024/01/20 06:06:52;;;;;;;28.73;13.00;;;;;;;-3.32;100.00;100142.22;5036976;28;20072;-50
2024/01/20 06:09:18;;;;;;;33.72;13.13;;;;;;;-3.24;100.00;100144.44;5025987;28;20024;-50
2024/01/20 06:11:43;;;;;;;30.52;13.73;;;;;;;-3.26;100.00;100141.03;5034405;28;20021;-50
2024/01/20 06:14:09;;;;;;;34.72;14.05;;;;;;;-3.22;100.00;100150.47;5029571;28;20026;-50
2024/01/20 06:16:38;;;;;;;33.50;13.48;;;;;;;-3.30;100.00;100156.22;5027165;28;20477;-50
2024/01/20 06:19:04;;;;;;;33.65;13.93;;;;;;;-3.38;100.00;100156.63;5026300;28;20115;-50
2024/01/20 06:21:29;;;;;;;34.67;13.90;;;;;;;-3.38;100.00;100163.69;5032092;28;20033;-50
2024/01/20 06:23:55;;;;;;;34.47;13.30;;;;;;;-3.41;100.00;100170.00;5026201;28;20047;-50
2024/01/20 06:26:20;;;;;;;30.48;13.50;;;;;;;-3.40;100.00;100152.34;5026948;28;20022;-50
2024/01/20 06:28:45;;;;;;;29.63;12.52;;;;;;;-3.33;100.00;100165.19;5028797;28;20466;-50
2024/01/20 06:31:21;;;;;;;29.58;13.30;;;;;;;-3.42;100.00;100160.34;5026259;28;20520;-51
2024/01/20 06:33:47;;;;;;;33.10;13.23;;;;;;;-3.39;100.00;100165.47;5024575;28;20083;-51
2024/01/20 06:36:13;;;;;;;34.28;14.27;;;;;;;-3.30;100.00;100156.22;5021093;28;20029;-50
2024/01/20 06:38:38;;;;;;;36.03;12.85;;;;;;;-3.40;100.00;100171.72;5023674;28;20568;-50
2024/01/20 06:41:04;;;;;;;32.25;13.02;;;;;;;-3.41;100.00;100177.94;5030368;28;20492;-51
2024/01/20 06:43:29;;;;;;;33.50;13.80;;;;;;;-3.42;100.00;100181.53;5031136;28;20102;-50
2024/01/20 06:45:55;;;;;;;34.10;13.27;;;;;;;-3.29;100.00;100184.38;5026474;28;20453;-50
2024/01/20 06:48:20;;;;;;;34.47;14.23;;;;;;;-3.33;100.00;100182.81;5025334;28;20083;-50
2024/01/20 06:50:47;;;;;;;31.55;12.77;;;;;;;-3.38;100.00;100179.56;5027761;28;20492;-50
2024/01/20 06:53:12;;;;;;;34.90;13.90;;;;;;;-3.36;100.00;100177.69;5026663;28;20116;-51
2024/01/20 06:55:38;;;;;;;34.75;13.43;;;;;;;-3.37;100.00;100187.44;5032487;28;20104;-50
2024/01/20 06:58:04;;;;;;;30.98;14.00;;;;;;;-3.31;100.00;100184.44;5031373;28;20025;-50
2024/01/20 07:00:30;;;;;;;31.85;13.65;;;;;;;-3.26;100.00;100188.66;5025221;28;20030;-50
2024/01/20 07:02:55;;;;;;;34.22;13.52;;;;;;;-3.22;100.00;100198.13;5023667;28;20032;-50
2024/01/20 07:05:20;;;;;;;39.33;15.38;;;;;;;-3.23;100.00;100199.06;5032237;28;20489;-51
2024/01/20 07:07:46;;;;;;;36.92;15.13;;;;;;;-3.22;100.00;100206.06;5013902;28;20025;-51
2024/01/20 07:10:13;;;;;;;36.17;14.60;;;;;;;-3.36;100.00;100191.78;5024432;28;20401;-50
2024/01/20 07:12:39;;;;;;;36.50;14.25;;;;;;;-3.37;100.00;100213.88;5023163;28;20025;-50
2024/01/20 07:15:05;;;;;;;31.80;12.88;;;;;;;-3.45;100.00;100213.44;5023605;28;20028;-50
2024/01/20 07:17:31;;;;;;;35.30;13.68;;;;;;;-3.51;100.00;100205.84;5021167;28;20028;-50
2024/01/20 07:19:56;;;;;;;32.90;14.20;;;;;;;-3.48;100.00;100224.19;5023910;28;20109;-50
2024/01/20 07:22:21;;;;;;;37.88;15.68;;;;;;;-3.47;100.00;100212.66;5021001;28;20393;-50
2024/01/20 07:24:47;;;;;;;34.90;14.65;;;;;;;-3.37;100.00;100237.72;5016640;28;20053;-50
2024/01/20 07:27:13;;;;;;;38.15;15.40;;;;;;;-3.28;100.00;100232.88;5020311;28;20041;-52
2024/01/20 07:29:38;;;;;;;35.75;14.13;;;;;;;-3.20;100.00;100230.66;5020226;28;20021;-50
2024/01/20 07:32:04;;;;;;;39.78;17.00;;;;;;;-3.16;100.00;100225.13;5027077;28;20029;-51
2024/01/20 07:34:29;;;;;;;30.17;12.88;;;;;;;-3.21;100.00;100226.31;5025414;28;20028;-50
2024/01/20 07:36:55;;;;;;;30.15;12.60;;;;;;;-3.27;100.00;100234.59;5025784;28;20086;-51
2024/01/20 07:39:20;;;;;;;32.97;13.18;;;;;;;-3.52;100.00;100231.41;5024060;28;20357;-53
2024/01/20 07:41:47;;;;;;;30.50;12.25;;;;;;;-3.56;100.00;100234.31;5019547;28;20056;-54
2024/01/20 07:44:13;;;;;;;34.65;13.52;;;;;;;-3.45;100.00;100228.47;5019801;28;20025;-54
2024/01/20 07:46:38;;;;;;;40.53;13.73;;;;;;;-3.49;100.00;100230.41;5028534;28;20025;-54
2024/01/20 07:49:04;;;;;;;34.55;13.80;;;;;;;-3.47;100.00;100238.25;5027200;28;20034;-54
2024/01/20 07:51:30;;;;;;;33.33;13.57;;;;;;;-3.48;100.00;100239.19;5027123;28;20065;-75
2024/01/20 07:53:55;;;;;;;36.17;14.68;;;;;;;-3.38;100.00;100243.94;5026713;28;20156;-54
2024/01/20 07:56:21;;;;;;;39.25;16.67;;;;;;;-3.23;100.00;100246.72;5031681;28;20033;-54
2024/01/20 07:58:46;;;;;;;37.95;14.63;;;;;;;-3.26;100.00;100249.53;5020843;28;20025;-54
2024/01/20 08:01:12;;;;;;;36.28;14.57;;;;;;;-3.21;100.00;100244.84;5029220;28;20112;-54
2024/01/20 08:03:37;;;;;;;31.75;14.30;;;;;;;-3.12;100.00;100249.63;5022492;28;20030;-54
2024/01/20 08:06:03;;;;;;;32.03;13.23;;;;;;;-3.13;100.00;100248.78;5028425;28;20151;-54
2024/01/20 08:08:28;;;;;;;34.08;13.43;;;;;;;-3.03;100.00;100254.47;5027600;28;20369;-54
2024/01/20 08:10:54;;;;;;;33.85;14.27;;;;;;;-3.24;100.00;100252.94;5022243;28;20529;-54
2024/01/20 08:13:20;;;;;;;31.33;13.50;;;;;;;-3.10;100.00;100248.63;5019636;28;20069;-53
2024/01/20 08:15:45;;;;;;;34.10;14.43;;;;;;;-2.96;100.00;100255.88;5027559;28;20021;-54
2024/01/20 08:18:11;;;;;;;42.08;15.15;;;;;;;-3.19;100.00;100258.88;5026961;28;20113;-54
2024/01/20 08:20:36;;;;;;;33.35;13.73;;;;;;;-3.10;100.00;100261.00;5031229;28;20041;-54
2024/01/20 08:23:02;;;;;;;33.92;14.27;;;;;;;-3.01;100.00;100264.97;5033680;28;20045;-54
2024/01/20 08:25:53;;;;;;;36.75;14.07;;;;;;;-2.82;100.00;100256.91;5023131;28;20347;-55
2024/01/20 08:28:18;;;;;;;31.80;13.25;;;;;;;-2.73;100.00;100251.94;5074497;22;20116;-71
2024/01/20 08:30:43;;;;;;;36.33;14.13;;;;;;;-2.80;100.00;100234.69;5064650;28;20027;-72
2024/01/20 08:33:09;;;;;;;34.28;13.30;;;;;;;-2.59;100.00;100267.13;5060649;28;20255;-71
2024/01/20 08:35:34;;;;;;;35.67;13.90;;;;;;;-2.42;100.00;100266.19;5073379;28;20021;-72
2024/01/20 08:38:00;;;;;;;30.42;13.70;;;;;;;-2.39;100.00;100265.16;5070379;28;20036;-72
2024/01/20 08:40:25;;;;;;;32.63;12.73;;;;;;;-2.51;100.00;100287.91;5077262;28;20025;-77
2024/01/20 08:42:52;;;;;;;35.95;14.25;;;;;;;-2.45;100.00;100288.41;5069457;28;20215;-78
2024/01/20 08:45:18;;;;;;;36.38;12.93;;;;;;;-2.36;100.00;100291.47;5054147;28;20312;-72
2024/01/20 08:47:43;;;;;;;32.78;14.23;;;;;;;-2.13;100.00;100282.25;5059158;28;20021;-73
2024/01/20 08:50:09;;;;;;;32.72;14.35;;;;;;;-2.18;100.00;100293.09;5061920;28;20021;-72
2024/01/20 08:53:32;;;;;;;30.67;14.32;;;;;;;-2.18;100.00;100308.16;5064919;28;20259;-79
2024/01/20 08:56:03;;;;;;;30.70;13.02;;;;;;;-2.15;100.00;100300.88;5068673;22;20033;-55
2024/01/20 08:58:29;;;;;;;31.35;13.82;;;;;;;-1.94;100.00;100301.47;5026775;28;20083;-56
2024/01/20 09:00:55;;;;;;;34.70;14.02;;;;;;;-1.84;100.00;100300.00;5027265;28;20029;-56
2024/01/20 09:03:20;;;;;;;31.42;13.32;;;;;;;-1.72;100.00;100297.63;5028136;28;20021;-56
2024/01/20 09:05:46;;;;;;;29.08;12.23;;;;;;;-2.00;100.00;100294.72;5010598;28;20025;-56
2024/01/20 09:08:11;;;;;;;31.73;14.48;;;;;;;-2.22;100.00;100305.69;5005441;28;20022;-56
2024/01/20 09:10:37;;;;;;;32.25;14.30;;;;;;;-2.49;100.00;100296.59;5007645;28;20054;-54
2024/01/20 09:13:03;;;;;;;39.95;14.20;;;;;;;-2.40;100.00;100289.97;5006817;28;20035;-54
2024/01/20 09:15:29;;;;;;;32.65;14.93;;;;;;;-2.02;100.00;100301.94;5002534;28;20022;-55
2024/01/20 09:17:54;;;;;;;35.97;13.70;;;;;;;-2.02;100.00;100299.28;5002395;28;20109;-55
2024/01/20 09:20:20;;;;;;;30.02;13.02;;;;;;;-2.18;100.00;100287.81;5003409;28;20049;-55
2024/01/20 09:22:46;;;;;;;33.22;13.60;;;;;;;-1.84;100.00;100296.50;4998951;28;20195;-54
2024/01/20 09:25:11;;;;;;;34.15;13.98;;;;;;;-1.55;100.00;100298.34;4999796;28;20042;-55
2024/01/20 09:27:37;;;;;;;34.50;13.77;;;;;;;-1.44;100.00;100299.50;5001208;28;20060;-55
2024/01/20 09:30:03;;;;;;;35.35;13.93;;;;;;;-1.20;100.00;100310.50;5010798;28;20037;-55
2024/01/20 09:32:30;;;;;;;31.67;12.82;;;;;;;-1.21;100.00;100312.25;5005596;28;20045;-55
2024/01/20 09:34:56;;;;;;;30.00;12.65;;;;;;;-1.40;100.00;100314.31;5003710;28;20025;-55
2024/01/20 09:37:21;;;;;;;27.27;12.38;;;;;;;-1.53;100.00;100315.97;5005930;28;20029;-55
2024/01/20 09:39:47;;;;;;;33.08;13.43;;;;;;;-1.70;100.00;100322.25;5008881;28;20038;-54
2024/01/20 09:42:12;;;;;;;28.40;12.68;;;;;;;-1.24;100.00;100319.56;4999975;28;20034;-54
2024/01/20 09:44:38;;;;;;;28.77;12.88;;;;;;;-1.39;100.00;100338.13;5008452;28;20557;-53
2024/01/20 09:47:08;;;;;;;30.95;13.05;;;;;;;-1.65;100.00;100330.78;5002717;28;20038;-53
2024/01/20 09:49:34;;;;;;;28.48;12.93;;;;;;;-1.78;100.00;100339.47;5012441;28;20107;-54
2024/01/20 09:52:07;;;;;;;32.42;13.95;;;;;;;-1.94;100.00;100335.09;5000790;28;20438;-54
2024/01/20 09:54:40;;;;;;;39.10;14.73;;;;;;;-2.21;100.00;100346.31;5010662;28;20363;-55
2024/01/20 09:57:05;;;;;;;32.40;13.57;;;;;;;-2.19;100.00;100332.97;5001150;28;20370;-54
2024/01/20 09:59:32;;;;;;;35.03;15.48;;;;;;;-1.81;100.00;100352.91;5013070;28;20030;-57
2024/01/20 10:01:58;;;;;;;37.42;16.00;;;;;;;-1.67;100.00;100328.25;5010441;28;20037;-55
2024/01/20 10:04:27;;;;;;;36.97;14.50;;;;;;;-1.58;100.00;100348.94;5014703;28;20075;-55
2024/01/20 10:06:54;;;;;;;34.67;15.60;;;;;;;-1.82;100.00;100337.06;5007148;28;20113;-55
2024/01/20 10:09:19;;;;;;;40.55;16.27;;;;;;;-1.92;100.00;100346.50;5001316;28;20046;-53
2024/01/20 10:11:45;;;;;;;34.10;14.40;;;;;;;-1.50;100.00;100355.59;5005104;28;20069;-53
2024/01/20 10:14:11;;;;;;;34.55;14.23;;;;;;;-1.42;100.00;100351.56;5010012;28;20037;-53
2024/01/20 10:16:39;;;;;;;33.10;13.70;;;;;;;-1.41;100.00;100344.47;5006101;28;20080;-53
2024/01/20 10:19:04;;;;;;;33.92;14.95;;;;;;;-1.32;100.00;100333.31;5006329;28;20113;-54
2024/01/20 10:21:37;;;;;;;34.63;15.23;;;;;;;-1.04;100.00;100334.34;5006144;28;20520;-54
2024/01/20 10:24:02;;;;;;;37.33;14.38;;;;;;;-0.55;100.00;100328.66;5002329;28;20136;-53
2024/01/20 10:26:28;;;;;;;28.30;12.63;;;;;;;-0.22;100.00;100339.84;4998136;28;20117;-52
2024/01/20 10:28:53;;;;;;;34.88;15.20;;;;;;;0.52;100.00;100335.09;4996178;28;20554;-53
2024/01/20 10:31:19;;;;;;;29.35;14.07;;;;;;;1.27;100.00;100313.16;5006361;28;20041;-53
2024/01/20 10:33:48;;;;;;;26.90;12.40;;;;;;;3.31;100.00;100315.97;5010179;28;20453;-53
2024/01/20 10:36:17;;;;;;;23.55;11.10;;;;;;;4.24;100.00;100311.16;5001850;28;20022;-53
2024/01/20 10:38:45;;;;;;;;;;;;;;;4.46;100.00;100314.75;5015420;28;20025;-54
2024/01/20 10:41:13;;;;;;;24.47;11.07;;;;;;;3.89;100.00;100312.19;5005704;28;20377;-54
2024/01/20 10:43:48;;;;;;;26.77;12.93;;;;;;;4.90;100.00;100304.81;5007873;28;20024;-54
2024/01/20 10:46:22;;;;;;;29.13;15.00;;;;;;;6.94;87.63;100308.19;5003290;28;20022;-56
2024/01/20 10:48:52;;;;;;;28.20;14.50;;;;;;;7.57;78.93;100300.41;4998991;28;20029;-55
2024/01/20 10:51:25;;;;;;;28.67;15.07;;;;;;;7.36;73.97;100313.22;5003271;28;20167;-55
2024/01/20 10:53:51;;;;;;;29.25;14.93;;;;;;;7.61;74.06;100300.97;5007004;28;20048;-55
2024/01/20 10:56:17;;;;;;;29.45;15.10;;;;;;;6.10;74.79;100319.44;4996776;28;20096;-56
2024/01/20 10:58:54;;;;;;;34.15;15.45;;;;;;;5.80;78.98;100310.41;5004374;28;20466;-55
2024/01/20 11:01:20;;;;;;;32.25;15.52;;;;;;;5.36;79.28;100299.03;5001228;28;20038;-56
2024/01/20 11:03:45;;;;;;;26.45;14.13;;;;;;;4.26;87.98;100286.94;5029900;22;20186;-74